Aeroporto :
LOGIN :

Iscrizione | Disclaimer

   EN    FR    IT 

 










Sommario :    VFR   VFR Marginale   IFR   IFR Intensivo   IFR Molto Intensivo
Visibilità : 
Base nubi : 
>= 8 km
>= 3000ft
5 / 8 km
1000 / 3000 ft
1500m / 5 km
500 / 1000 ft
800 / 1500m
200 / 500 ft
< 800m
< 200 ft
Simboli :   Temporali  Nebbia  Neve Forte  Precipitazioni Forti  Vento > 20 kt
SIGMETs :   Varie  Temporali  Ghiacco  Turbolenza  Onda orograficha  Ceneri Vulcaniche






- Altitudine del aeroporto : 479 ft
- Codice IATA : DOL


LFRG - Deauville

ULTIMO METAR :
  • 281230Z AUTO 19008KT 140V230 9999 FEW036 SCT042 BKN082 17/10 Q1019 TEMPO 21015G25KT 4000 SHRA BKN025CB

METARs OBSOLETI :
  • 281200Z AUTO 18013KT 160V220 9999 BKN032 BKN068 18/11 Q1020 TEMPO 21015G25KT 4000 SHRA BKN025CB
  • 281130Z AUTO 18009KT 160V230 9999 BKN028 BKN035 BKN140 17/11 Q1020 TEMPO 21015G25KT 4000 SHRA BKN025CB
  • 281100Z AUTO 20013KT 170V240 9999 FEW024 17/11 Q1020 TEMPO 21015G25KT 4000 SHRA BKN025TCU
  • 281030Z AUTO 19012KT 150V240 9999 SCT025 BKN074 16/11 Q1021 TEMPO 21015G25KT 4000 SHRA BKN025TCU
  • 281000Z AUTO 20009KT 160V230 9999 FEW025 BKN230 16/12 Q1021 NOSIG

TAF TAF LFRG
Valido dal 28 a 12 ore il 28 a 21 ore UTC


281100Z 2812/2821 19010KT 9999 SCT040
PROB40
TEMPO 2812/2818 21015G25KT 4000 SHRA BKN025CB
TEMPO 2818/2821 20015G25KT 3000 SHRA BKN020CB
ATIS : +33 2 31 65 65 36



MetMap, La meteo Aeronautica in un colpo d'occhio ! - Copyright ORBIFLY Dicembre 2007 - Disclaimer

ORBIFLY MET'MAP TEAM :

Programmazione e sviluppo : Alexandra Zaïnal
Concezione : Baudouin d'Aumeries
Aiuto per la programmazione : Marc-Olivier Méhu
Supporto tecnico e logistico : Manuel Goepfert
Aiuto per la traduzione : Arnaldo La Scala

Contatto : metmap@orbifly.com




FONTI E CREDITI :

   NOAA